Time;durP1;ratioP1;P1;durP2;ratioP2;P2;SDS_P1;SDS_P2;PMS_P1;PMS_P2;Temp;Humidity;BMP_temperature;BMP_pressure;BME280_temperature;BME280_humidity;BME280_pressure;Samples;Min_cycle;Max_cycle;Signal;HPM_P1;HPM_P2
2021/07/14 00:02:13;;;;;;;0.00;0.00;;;;;;;;;;5039596;28;20533;-68
2021/07/14 00:04:39;;;;;;;0.00;0.00;;;;;;;;;;5019764;28;20206;-69
2021/07/14 00:07:05;;;;;;;0.00;0.00;;;;;;;;;;5031643;28;20226;-67
2021/07/14 00:09:33;;;;;;;0.00;0.00;;;;;;;;;;5021808;28;20220;-68
2021/07/14 00:12:02;;;;;;;0.00;0.00;;;;;;;;;;5019679;28;20489;-68
2021/07/14 00:14:46;;;;;;;0.00;0.00;;;;;;;;;;5019496;28;20297;-67
2021/07/14 00:17:27;;;;;;;0.00;0.00;;;;;;;;;;5019513;28;20212;-68
2021/07/14 00:22:39;;;;;;;0.00;0.00;;;;;;;;;;5025158;28;20255;-68
2021/07/14 00:25:08;;;;;;;0.00;0.00;;;;;;;;;;5019231;28;20230;-68
2021/07/14 00:27:39;;;;;;;0.00;0.00;;;;;;;;;;5019380;28;20226;-67
2021/07/14 00:30:08;;;;;;;0.00;0.00;;;;;;;;;;5032680;28;20209;-68
2021/07/14 00:32:35;;;;;;;0.00;0.00;;;;;;;;;;5027124;28;20378;-68
2021/07/14 00:35:01;;;;;;;0.00;0.00;;;;;;;;;;5025102;28;20247;-67
2021/07/14 00:37:27;;;;;;;0.00;0.00;;;;;;;;;;5025155;28;20481;-67
2021/07/14 00:39:55;;;;;;;0.00;0.00;;;;;;;;;;5026500;28;20286;-67
2021/07/14 00:42:23;;;;;;;0.00;0.00;;;;;;;;;;5034032;28;20206;-68
2021/07/14 00:44:49;;;;;;;0.00;0.00;;;;;;;;;;5022244;28;20435;-68
2021/07/14 00:47:20;;;;;;;0.00;0.00;;;;;;;;;;5036272;28;20492;-68
2021/07/14 00:49:47;;;;;;;0.00;0.00;;;;;;;;;;5022615;28;20218;-68
2021/07/14 00:52:13;;;;;;;0.00;0.00;;;;;;;;;;5035839;28;20205;-67
2021/07/14 00:54:40;;;;;;;0.00;0.00;;;;;;;;;;5022214;28;20229;-68
2021/07/14 00:57:06;;;;;;;0.00;0.00;;;;;;;;;;5035795;28;20220;-68
2021/07/14 00:59:33;;;;;;;0.00;0.00;;;;;;;;;;5036064;28;20243;-68
2021/07/14 01:02:00;;;;;;;0.00;0.00;;;;;;;;;;5021884;28;20205;-68
2021/07/14 01:04:28;;;;;;;0.10;0.10;;;;;;;;;;5026266;28;20258;-68
2021/07/14 01:06:57;;;;;;;0.00;0.00;;;;;;;;;;5041534;28;20219;-68
2021/07/14 01:09:25;;;;;;;0.00;0.00;;;;;;;;;;5028061;28;20220;-68
2021/07/14 01:11:52;;;;;;;0.00;0.00;;;;;;;;;;5033005;28;20458;-68
2021/07/14 01:14:22;;;;;;;0.00;0.00;;;;;;;;;;5023381;28;20205;-68
2021/07/14 01:16:55;;;;;;;0.00;0.00;;;;;;;;;;5039802;28;20209;-67
2021/07/14 01:19:29;;;;;;;0.00;0.00;;;;;;;;;;5030940;28;20259;-68
2021/07/14 01:21:57;;;;;;;0.00;0.00;;;;;;;;;;5032546;28;20427;-67
2021/07/14 01:24:27;;;;;;;0.00;0.00;;;;;;;;;;5041688;28;20204;-69
2021/07/14 01:27:04;;;;;;;0.00;0.00;;;;;;;;;;5041657;28;20205;-67
2021/07/14 01:29:31;;;;;;;0.00;0.00;;;;;;;;;;5041651;28;20496;-68
2021/07/14 01:31:58;;;;;;;0.00;0.00;;;;;;;;;;5040960;28;20209;-67
2021/07/14 01:34:25;;;;;;;0.00;0.00;;;;;;;;;;5037653;28;20205;-67
2021/07/14 01:36:53;;;;;;;0.00;0.00;;;;;;;;;;5040987;28;20249;-68
2021/07/14 01:39:19;;;;;;;0.00;0.00;;;;;;;;;;5027595;28;20201;-67
2021/07/14 01:41:47;;;;;;;0.00;0.00;;;;;;;;;;5041411;28;20286;-68
2021/07/14 01:44:17;;;;;;;0.00;0.00;;;;;;;;;;5041319;28;20492;-68
2021/07/14 01:46:44;;;;;;;0.00;0.00;;;;;;;;;;5029861;28;20210;-68
2021/07/14 01:49:12;;;;;;;0.00;0.00;;;;;;;;;;5035205;28;20427;-68
2021/07/14 01:51:39;;;;;;;0.00;0.00;;;;;;;;;;5030579;28;20236;-67
2021/07/14 01:54:06;;;;;;;0.00;0.00;;;;;;;;;;5040070;28;20412;-68
2021/07/14 01:56:34;;;;;;;0.00;0.00;;;;;;;;;;5041002;28;20209;-68
2021/07/14 01:59:01;;;;;;;0.00;0.00;;;;;;;;;;5040916;28;20205;-69
2021/07/14 02:01:30;;;;;;;0.00;0.00;;;;;;;;;;5041065;28;20236;-69
2021/07/14 02:04:30;;;;;;;0.00;0.00;;;;;;;;;;5041283;28;20216;-67
2021/07/14 02:06:51;;;;;;;0.00;0.00;;;;;;;;;;5028748;28;20235;-68
2021/07/14 02:09:17;;;;;;;0.00;0.00;;;;;;;;;;5040610;28;20233;-67
2021/07/14 02:11:44;;;;;;;0.00;0.00;;;;;;;;;;5027450;28;20246;-68
2021/07/14 02:14:13;;;;;;;0.00;0.00;;;;;;;;;;5041137;28;20341;-68
2021/07/14 02:16:40;;;;;;;0.00;0.00;;;;;;;;;;5026996;28;20242;-67
2021/07/14 02:19:07;;;;;;;0.00;0.00;;;;;;;;;;5029441;28;20209;-67
2021/07/14 02:21:34;;;;;;;0.00;0.00;;;;;;;;;;5038101;28;20280;-67
2021/07/14 02:24:00;;;;;;;0.10;0.10;;;;;;;;;;5035166;28;20371;-68
2021/07/14 02:26:29;;;;;;;0.00;0.00;;;;;;;;;;5020302;28;20232;-67
2021/07/14 02:28:55;;;;;;;0.00;0.00;;;;;;;;;;5027775;28;20421;-68
2021/07/14 02:31:22;;;;;;;0.00;0.00;;;;;;;;;;5040234;28;20201;-67
2021/07/14 02:33:49;;;;;;;0.00;0.00;;;;;;;;;;5026331;28;20205;-69
2021/07/14 02:36:16;;;;;;;0.00;0.00;;;;;;;;;;5029342;28;20255;-68
2021/07/14 02:38:44;;;;;;;0.00;0.00;;;;;;;;;;5034159;28;20201;-69
2021/07/14 02:41:13;;;;;;;0.00;0.00;;;;;;;;;;5030362;28;20225;-68
2021/07/14 02:43:42;;;;;;;0.03;0.03;;;;;;;;;;5037824;28;20216;-69
2021/07/14 02:46:12;;;;;;;0.00;0.00;;;;;;;;;;5020507;28;20213;-68
2021/07/14 02:48:39;;;;;;;0.00;0.00;;;;;;;;;;5035480;28;20212;-68
2021/07/14 02:51:07;;;;;;;0.00;0.00;;;;;;;;;;5040205;28;20511;-69
2021/07/14 02:53:37;;;;;;;0.00;0.00;;;;;;;;;;5040133;28;20314;-68
2021/07/14 02:56:06;;;;;;;0.00;0.00;;;;;;;;;;5026594;28;20216;-69
2021/07/14 02:58:33;;;;;;;0.00;0.00;;;;;;;;;;5040008;28;20528;-69
2021/07/14 03:01:00;;;;;;;0.00;0.00;;;;;;;;;;5040177;28;20250;-68
2021/07/14 03:03:27;;;;;;;0.00;0.00;;;;;;;;;;5039992;28;20246;-69
2021/07/14 03:05:54;;;;;;;0.00;0.00;;;;;;;;;;5036346;28;20247;-68
2021/07/14 03:08:23;;;;;;;0.00;0.00;;;;;;;;;;5029953;28;20503;-67
2021/07/14 03:10:50;;;;;;;0.10;0.10;;;;;;;;;;5026113;28;20206;-68
2021/07/14 03:13:16;;;;;;;0.00;0.00;;;;;;;;;;5040009;28;20222;-68
2021/07/14 03:15:44;;;;;;;0.00;0.00;;;;;;;;;;5039770;28;20257;-67
2021/07/14 03:18:10;;;;;;;0.00;0.00;;;;;;;;;;5040154;28;20536;-67
2021/07/14 03:20:37;;;;;;;0.00;0.00;;;;;;;;;;5040173;28;20224;-68
2021/07/14 03:23:04;;;;;;;0.00;0.00;;;;;;;;;;5035284;28;20209;-68
2021/07/14 03:25:32;;;;;;;0.00;0.00;;;;;;;;;;5024188;28;20243;-70
2021/07/14 03:27:58;;;;;;;0.00;0.00;;;;;;;;;;5020063;28;20274;-68
2021/07/14 03:30:25;;;;;;;0.00;0.00;;;;;;;;;;5038870;28;20233;-68
2021/07/14 03:32:52;;;;;;;0.00;0.00;;;;;;;;;;5040076;28;20208;-68
2021/07/14 03:35:18;;;;;;;0.00;0.00;;;;;;;;;;5025594;28;20212;-68
2021/07/14 03:37:45;;;;;;;0.00;0.00;;;;;;;;;;5039533;28;20499;-67
2021/07/14 03:40:12;;;;;;;0.00;0.00;;;;;;;;;;5023909;28;20277;-68
2021/07/14 03:42:40;;;;;;;0.00;0.00;;;;;;;;;;5027257;28;20528;-68
2021/07/14 03:45:07;;;;;;;0.00;0.00;;;;;;;;;;5039535;28;20212;-67
2021/07/14 03:47:34;;;;;;;0.00;0.00;;;;;;;;;;5039287;28;20201;-67
2021/07/14 03:50:01;;;;;;;0.00;0.00;;;;;;;;;;5039944;28;20204;-69
2021/07/14 03:52:27;;;;;;;0.00;0.00;;;;;;;;;;5025790;28;20200;-68
2021/07/14 03:54:54;;;;;;;0.00;0.00;;;;;;;;;;5039819;28;20208;-68
2021/07/14 03:57:20;;;;;;;0.00;0.00;;;;;;;;;;5039039;28;20226;-69
2021/07/14 03:59:50;;;;;;;0.00;0.00;;;;;;;;;;5030803;28;20202;-67
2021/07/14 04:02:16;;;;;;;0.00;0.00;;;;;;;;;;5034488;28;20275;-68
2021/07/14 04:04:44;;;;;;;0.00;0.00;;;;;;;;;;5039089;28;20201;-68
2021/07/14 04:07:14;;;;;;;0.00;0.00;;;;;;;;;;5039041;28;20254;-68
2021/07/14 04:09:43;;;;;;;0.00;0.00;;;;;;;;;;5039543;28;20205;-68
2021/07/14 04:12:09;;;;;;;0.00;0.00;;;;;;;;;;5039611;28;20205;-68
2021/07/14 04:14:35;;;;;;;0.00;0.00;;;;;;;;;;5020470;28;20247;-68
2021/07/14 04:17:03;;;;;;;0.00;0.00;;;;;;;;;;5031595;28;20208;-67
2021/07/14 04:19:29;;;;;;;0.52;0.52;;;;;;;;;;5042870;28;20205;-68
2021/07/14 04:21:56;;;;;;;0.00;0.00;;;;;;;;;;5042683;28;20506;-69
2021/07/14 04:24:23;;;;;;;0.00;0.00;;;;;;;;;;5041278;28;20208;-67
2021/07/14 04:26:49;;;;;;;0.00;0.00;;;;;;;;;;5022970;28;20242;-68
2021/07/14 04:29:16;;;;;;;0.00;0.00;;;;;;;;;;5022949;28;20281;-68
2021/07/14 04:31:42;;;;;;;0.00;0.00;;;;;;;;;;5038309;28;20243;-68
2021/07/14 04:34:10;;;;;;;0.03;0.03;;;;;;;;;;5034845;28;20206;-68
2021/07/14 04:36:37;;;;;;;0.00;0.00;;;;;;;;;;5036918;28;20372;-68
2021/07/14 04:39:03;;;;;;;0.00;0.00;;;;;;;;;;5042853;28;20246;-68
2021/07/14 04:41:30;;;;;;;0.00;0.00;;;;;;;;;;5042470;28;20227;-68
2021/07/14 04:43:59;;;;;;;0.00;0.00;;;;;;;;;;5042462;28;20216;-68
2021/07/14 04:46:26;;;;;;;0.00;0.00;;;;;;;;;;5031676;28;20411;-68
2021/07/14 04:48:52;;;;;;;0.00;0.00;;;;;;;;;;5039277;28;20208;-67
2021/07/14 04:51:20;;;;;;;0.10;0.10;;;;;;;;;;5042543;28;20321;-68
2021/07/14 04:53:46;;;;;;;0.00;0.00;;;;;;;;;;5032813;28;20213;-68
2021/07/14 04:56:16;;;;;;;0.00;0.00;;;;;;;;;;5041872;28;20223;-68
2021/07/14 04:58:42;;;;;;;0.00;0.00;;;;;;;;;;5041705;28;20216;-67
2021/07/14 05:01:08;;;;;;;0.00;0.00;;;;;;;;;;5042124;28;20231;-67
2021/07/14 05:03:35;;;;;;;0.00;0.00;;;;;;;;;;5042377;28;20197;-67
2021/07/14 05:06:01;;;;;;;0.00;0.00;;;;;;;;;;5028311;28;20205;-67
2021/07/14 05:08:29;;;;;;;0.05;0.05;;;;;;;;;;5031482;28;20212;-68
2021/07/14 05:10:55;;;;;;;0.00;0.00;;;;;;;;;;5022086;28;20205;-67
2021/07/14 05:13:21;;;;;;;0.00;0.00;;;;;;;;;;5030979;28;20205;-68
2021/07/14 05:15:47;;;;;;;0.00;0.00;;;;;;;;;;5041047;27;20257;-67
2021/07/14 05:18:14;;;;;;;0.00;0.00;;;;;;;;;;5028588;28;20232;-67
2021/07/14 05:20:40;;;;;;;0.00;0.00;;;;;;;;;;5041613;28;20211;-67
2021/07/14 05:23:07;;;;;;;0.00;0.00;;;;;;;;;;5041572;28;20278;-68
2021/07/14 05:25:34;;;;;;;0.00;0.00;;;;;;;;;;5042303;28;20524;-68
2021/07/14 05:28:01;;;;;;;0.00;0.00;;;;;;;;;;5042062;28;20496;-67
2021/07/14 05:30:27;;;;;;;0.10;0.10;;;;;;;;;;5035850;28;20210;-67
2021/07/14 05:32:54;;;;;;;0.10;0.10;;;;;;;;;;5021891;28;20221;-67
2021/07/14 05:35:20;;;;;;;0.00;0.00;;;;;;;;;;5039393;28;20212;-67
2021/07/14 05:37:46;;;;;;;0.00;0.00;;;;;;;;;;5041854;28;20201;-67
2021/07/14 05:40:13;;;;;;;0.00;0.00;;;;;;;;;;5041382;28;20452;-67
2021/07/14 05:42:40;;;;;;;0.00;0.00;;;;;;;;;;5041627;28;20584;-68
2021/07/14 05:45:08;;;;;;;0.10;0.10;;;;;;;;;;5041520;28;20250;-68
2021/07/14 05:47:34;;;;;;;0.00;0.00;;;;;;;;;;5034925;28;20202;-68
2021/07/14 05:50:03;;;;;;;0.00;0.00;;;;;;;;;;5034345;28;20266;-68
2021/07/14 05:52:29;;;;;;;0.10;0.10;;;;;;;;;;5041315;28;20480;-68
2021/07/14 05:54:55;;;;;;;0.00;0.00;;;;;;;;;;5041543;28;20242;-67
2021/07/14 05:57:22;;;;;;;0.00;0.00;;;;;;;;;;5037990;28;20218;-67
2021/07/14 05:59:49;;;;;;;0.00;0.00;;;;;;;;;;5030268;28;20205;-68
2021/07/14 06:02:15;;;;;;;0.00;0.00;;;;;;;;;;5037129;28;20224;-68
2021/07/14 06:04:42;;;;;;;0.00;0.00;;;;;;;;;;5028504;28;20246;-68
2021/07/14 06:07:08;;;;;;;0.00;0.00;;;;;;;;;;5029104;27;20198;-68
2021/07/14 06:09:35;;;;;;;0.00;0.00;;;;;;;;;;5030235;28;20229;-68
2021/07/14 06:12:01;;;;;;;0.00;0.00;;;;;;;;;;5024709;28;20382;-67
2021/07/14 06:14:27;;;;;;;0.00;0.00;;;;;;;;;;5024470;28;20213;-67
2021/07/14 06:16:56;;;;;;;0.00;0.00;;;;;;;;;;5025389;28;20210;-67
2021/07/14 06:19:22;;;;;;;0.05;0.05;;;;;;;;;;5028978;28;20437;-67
2021/07/14 06:21:48;;;;;;;0.00;0.00;;;;;;;;;;5024515;28;20227;-67
2021/07/14 06:24:14;;;;;;;0.00;0.00;;;;;;;;;;5034146;28;20250;-67
2021/07/14 06:26:41;;;;;;;0.00;0.00;;;;;;;;;;5020975;28;20206;-67
2021/07/14 06:29:08;;;;;;;0.00;0.00;;;;;;;;;;5026115;28;20550;-67
2021/07/14 06:31:35;;;;;;;0.00;0.00;;;;;;;;;;5021035;28;20205;-67
2021/07/14 06:34:02;;;;;;;0.00;0.00;;;;;;;;;;5034556;28;20205;-68
2021/07/14 06:36:28;;;;;;;0.00;0.00;;;;;;;;;;5021165;28;20209;-67
2021/07/14 06:38:58;;;;;;;0.00;0.00;;;;;;;;;;5034870;28;20255;-67
2021/07/14 06:41:25;;;;;;;0.00;0.00;;;;;;;;;;5020023;28;20231;-68
2021/07/14 06:43:51;;;;;;;0.00;0.00;;;;;;;;;;5024544;28;20249;-68
2021/07/14 06:46:18;;;;;;;0.00;0.00;;;;;;;;;;5041181;27;20205;-64
2021/07/14 06:48:44;;;;;;;0.00;0.00;;;;;;;;;;5028295;28;20212;-65
2021/07/14 06:51:12;;;;;;;0.00;0.00;;;;;;;;;;5033579;28;20214;-62
2021/07/14 06:53:38;;;;;;;0.00;0.00;;;;;;;;;;5037799;28;20204;-62
2021/07/14 06:56:05;;;;;;;0.00;0.00;;;;;;;;;;5032632;28;20244;-64
2021/07/14 06:58:33;;;;;;;0.00;0.00;;;;;;;;;;5021533;28;20235;-63
2021/07/14 07:00:59;;;;;;;0.00;0.00;;;;;;;;;;5022945;28;20535;-64
2021/07/14 07:03:26;;;;;;;0.00;0.00;;;;;;;;;;5039716;28;20449;-63
2021/07/14 07:05:52;;;;;;;0.00;0.00;;;;;;;;;;5027564;28;20212;-63
2021/07/14 07:08:19;;;;;;;0.00;0.00;;;;;;;;;;5021709;28;20205;-63
2021/07/14 07:10:47;;;;;;;0.00;0.00;;;;;;;;;;5028496;28;20213;-64
2021/07/14 07:13:16;;;;;;;0.00;0.00;;;;;;;;;;5022642;28;20202;-63
2021/07/14 07:15:42;;;;;;;0.00;0.00;;;;;;;;;;5022880;28;20412;-64
2021/07/14 07:18:08;;;;;;;0.00;0.00;;;;;;;;;;5022562;28;20318;-62
2021/07/14 07:20:34;;;;;;;0.00;0.00;;;;;;;;;;5020121;28;20209;-63
2021/07/14 07:23:01;;;;;;;0.00;0.00;;;;;;;;;;5028777;28;20273;-63
2021/07/14 07:25:28;;;;;;;0.10;0.10;;;;;;;;;;5023757;28;20229;-64
2021/07/14 07:27:58;;;;;;;0.00;0.00;;;;;;;;;;5027091;28;20215;-63
2021/07/14 07:30:25;;;;;;;0.30;0.30;;;;;;;;;;5025626;28;20198;-63
2021/07/14 07:32:51;;;;;;;0.10;0.10;;;;;;;;;;5020552;28;20209;-63
2021/07/14 07:35:18;;;;;;;0.00;0.00;;;;;;;;;;5031649;28;20216;-62
2021/07/14 07:37:44;;;;;;;0.00;0.00;;;;;;;;;;5027633;28;20208;-62
2021/07/14 07:40:11;;;;;;;0.00;0.00;;;;;;;;;;5021453;28;20217;-63
2021/07/14 07:42:39;;;;;;;0.00;0.00;;;;;;;;;;5032339;28;20227;-63
2021/07/14 07:45:07;;;;;;;0.00;0.00;;;;;;;;;;5035353;28;20591;-64
2021/07/14 07:47:33;;;;;;;0.00;0.00;;;;;;;;;;5025879;28;20215;-64
2021/07/14 07:49:59;;;;;;;0.10;0.10;;;;;;;;;;5031427;28;20205;-64
2021/07/14 07:52:26;;;;;;;0.00;0.00;;;;;;;;;;5029706;28;20241;-64
2021/07/14 07:54:55;;;;;;;0.00;0.00;;;;;;;;;;5032736;28;20338;-64
2021/07/14 07:57:21;;;;;;;0.00;0.00;;;;;;;;;;5023874;28;20218;-62
2021/07/14 07:59:49;;;;;;;0.00;0.00;;;;;;;;;;5028391;28;20201;-63
2021/07/14 08:02:15;;;;;;;0.00;0.00;;;;;;;;;;5031606;28;20540;-62
2021/07/14 08:04:42;;;;;;;0.00;0.00;;;;;;;;;;5032947;28;20263;-62
2021/07/14 08:07:08;;;;;;;0.05;0.05;;;;;;;;;;5032114;28;20208;-63
2021/07/14 08:09:37;;;;;;;0.20;0.20;;;;;;;;;;5027698;28;20224;-62
2021/07/14 08:12:03;;;;;;;0.00;0.00;;;;;;;;;;5035821;28;20576;-63
2021/07/14 08:14:30;;;;;;;0.10;0.10;;;;;;;;;;5029587;28;20201;-63
2021/07/14 08:16:57;;;;;;;0.10;0.10;;;;;;;;;;5034847;28;20210;-63
2021/07/14 08:19:24;;;;;;;0.00;0.00;;;;;;;;;;5023203;28;20213;-63
2021/07/14 08:21:50;;;;;;;0.00;0.00;;;;;;;;;;5034316;28;20205;-62
2021/07/14 08:24:16;;;;;;;0.00;0.00;;;;;;;;;;5023080;28;20266;-62
2021/07/14 08:26:43;;;;;;;0.00;0.00;;;;;;;;;;5023134;28;20217;-62
2021/07/14 08:29:09;;;;;;;0.00;0.00;;;;;;;;;;5023885;28;20210;-63
2021/07/14 08:31:35;;;;;;;0.00;0.00;;;;;;;;;;5029014;28;20232;-63
2021/07/14 08:34:03;;;;;;;0.00;0.00;;;;;;;;;;5023300;28;20210;-63
2021/07/14 08:36:29;;;;;;;0.00;0.00;;;;;;;;;;5022771;28;20219;-62
2021/07/14 08:38:56;;;;;;;0.00;0.00;;;;;;;;;;5041990;28;20492;-63
2021/07/14 08:41:24;;;;;;;0.00;0.00;;;;;;;;;;5034343;28;20205;-63
2021/07/14 08:43:52;;;;;;;0.00;0.00;;;;;;;;;;5029727;28;20241;-62
2021/07/14 08:46:19;;;;;;;0.20;0.20;;;;;;;;;;5032421;28;20477;-62
2021/07/14 08:48:45;;;;;;;0.00;0.00;;;;;;;;;;5038505;28;20271;-62
2021/07/14 08:51:14;;;;;;;0.10;0.10;;;;;;;;;;5024825;28;20378;-63
2021/07/14 08:53:41;;;;;;;0.00;0.00;;;;;;;;;;5027316;28;20205;-62
2021/07/14 08:56:07;;;;;;;0.10;0.10;;;;;;;;;;5029389;28;20515;-62
2021/07/14 08:58:33;;;;;;;0.00;0.00;;;;;;;;;;5029386;28;20493;-63
2021/07/14 09:01:01;;;;;;;0.00;0.00;;;;;;;;;;5040938;28;20205;-63
2021/07/14 09:03:28;;;;;;;0.00;0.00;;;;;;;;;;5041367;28;20228;-63
2021/07/14 09:05:54;;;;;;;0.00;0.00;;;;;;;;;;5032099;28;20497;-62
2021/07/14 09:08:22;;;;;;;0.00;0.00;;;;;;;;;;5032683;28;20213;-62
2021/07/14 09:10:48;;;;;;;0.03;0.03;;;;;;;;;;5042112;28;20209;-62
2021/07/14 09:13:15;;;;;;;0.05;0.05;;;;;;;;;;5040533;28;20201;-62
2021/07/14 09:15:42;;;;;;;0.00;0.00;;;;;;;;;;5041802;28;20216;-62
2021/07/14 09:18:09;;;;;;;0.00;0.00;;;;;;;;;;5027265;28;20276;-63
2021/07/14 09:20:36;;;;;;;0.00;0.00;;;;;;;;;;5029776;28;20251;-63
2021/07/14 09:23:04;;;;;;;0.00;0.00;;;;;;;;;;5032070;28;20250;-62
2021/07/14 09:25:37;;;;;;;0.00;0.00;;;;;;;;;;5033985;28;20266;-62
2021/07/14 09:28:05;;;;;;;0.00;0.00;;;;;;;;;;5029522;28;20372;-63
2021/07/14 09:30:32;;;;;;;0.00;0.00;;;;;;;;;;5025055;28;20382;-62
2021/07/14 09:32:59;;;;;;;0.00;0.00;;;;;;;;;;5029940;28;20542;-63
2021/07/14 09:35:27;;;;;;;0.38;0.38;;;;;;;;;;5027303;28;20515;-63
2021/07/14 09:37:53;;;;;;;0.00;0.00;;;;;;;;;;5021762;28;20473;-62
2021/07/14 09:40:20;;;;;;;0.00;0.00;;;;;;;;;;5021537;28;20206;-63
2021/07/14 09:42:52;;;;;;;0.10;0.10;;;;;;;;;;5022989;28;20232;-63
2021/07/14 09:45:33;;;;;;;0.00;0.00;;;;;;;;;;5021696;28;20214;-62
2021/07/14 09:47:59;;;;;;;0.00;0.00;;;;;;;;;;5021649;28;20240;-63
2021/07/14 09:50:30;;;;;;;0.10;0.10;;;;;;;;;;5036573;28;20224;-63
2021/07/14 09:53:00;;;;;;;1.10;1.10;;;;;;;;;;5026967;28;20209;-63
2021/07/14 09:55:28;;;;;;;0.00;0.00;;;;;;;;;;5023791;28;20386;-62
2021/07/14 09:58:05;;;;;;;0.30;0.30;;;;;;;;;;5035658;28;20231;-63
2021/07/14 10:00:37;;;;;;;0.00;0.00;;;;;;;;;;5033571;28;20358;-65
2021/07/14 10:03:03;;;;;;;0.00;0.00;;;;;;;;;;5035850;28;20214;-63
2021/07/14 10:05:30;;;;;;;0.10;0.10;;;;;;;;;;5031543;28;20488;-63
2021/07/14 10:08:13;;;;;;;0.00;0.00;;;;;;;;;;5039092;28;20212;-63
2021/07/14 10:10:39;;;;;;;0.00;0.00;;;;;;;;;;5022248;28;20444;-63
2021/07/14 10:13:08;;;;;;;0.00;0.00;;;;;;;;;;5023499;28;20322;-63
2021/07/14 10:15:35;;;;;;;0.00;0.00;;;;;;;;;;5036644;28;20208;-64
2021/07/14 10:18:01;;;;;;;0.00;0.00;;;;;;;;;;5025679;28;20228;-64
2021/07/14 10:20:30;;;;;;;0.00;0.00;;;;;;;;;;5025223;28;20201;-64
2021/07/14 10:22:57;;;;;;;0.00;0.00;;;;;;;;;;5026529;28;20230;-64
2021/07/14 10:25:24;;;;;;;0.05;0.05;;;;;;;;;;5022822;28;20226;-64
2021/07/14 10:27:51;;;;;;;0.05;0.05;;;;;;;;;;5025594;28;20280;-63
2021/07/14 10:30:20;;;;;;;0.10;0.10;;;;;;;;;;5035846;28;20419;-63
2021/07/14 10:32:47;;;;;;;0.00;0.00;;;;;;;;;;5020732;28;20213;-63
2021/07/14 10:35:15;;;;;;;0.00;0.00;;;;;;;;;;5034527;28;20205;-63
2021/07/14 10:37:41;;;;;;;0.00;0.00;;;;;;;;;;5029622;28;20228;-63
2021/07/14 10:40:08;;;;;;;0.00;0.00;;;;;;;;;;5026354;28;20394;-63
2021/07/14 10:42:35;;;;;;;0.00;0.00;;;;;;;;;;5037270;28;20200;-62
2021/07/14 10:45:02;;;;;;;0.00;0.00;;;;;;;;;;5035857;28;20492;-62
2021/07/14 10:47:30;;;;;;;0.00;0.00;;;;;;;;;;5023748;28;20229;-63
2021/07/14 10:49:57;;;;;;;0.00;0.00;;;;;;;;;;5030335;28;20221;-62
2021/07/14 10:52:24;;;;;;;0.00;0.00;;;;;;;;;;5023349;28;20214;-62
2021/07/14 10:54:51;;;;;;;0.00;0.00;;;;;;;;;;5030761;28;20204;-62
2021/07/14 10:57:17;;;;;;;0.05;0.05;;;;;;;;;;5037626;28;20212;-62
2021/07/14 10:59:45;;;;;;;0.00;0.00;;;;;;;;;;5031338;28;20205;-63
2021/07/14 11:02:14;;;;;;;0.00;0.00;;;;;;;;;;5026003;28;20237;-63
2021/07/14 11:04:55;;;;;;;0.00;0.00;;;;;;;;;;5038011;28;20224;-63
2021/07/14 11:07:38;;;;;;;0.00;0.00;;;;;;;;;;5026190;28;20270;-63
2021/07/14 11:10:19;;;;;;;0.00;0.00;;;;;;;;;;5023640;28;20213;-62
2021/07/14 11:12:46;;;;;;;0.00;0.00;;;;;;;;;;5019242;28;20201;-64
2021/07/14 11:15:12;;;;;;;0.00;0.00;;;;;;;;;;5031006;28;20476;-63
2021/07/14 11:17:39;;;;;;;0.00;0.00;;;;;;;;;;5020448;28;20424;-64
2021/07/14 11:20:08;;;;;;;0.00;0.00;;;;;;;;;;5034139;28;20209;-63
2021/07/14 11:22:38;;;;;;;0.00;0.00;;;;;;;;;;5020422;28;20387;-64
2021/07/14 11:25:05;;;;;;;0.10;0.10;;;;;;;;;;5034044;28;20419;-64
2021/07/14 11:27:52;;;;;;;0.00;0.00;;;;;;;;;;5029355;28;20362;-65
2021/07/14 11:30:36;;;;;;;0.00;0.00;;;;;;;;;;5040084;28;20217;-64
2021/07/14 11:33:03;;;;;;;0.00;0.00;;;;;;;;;;5039777;28;20205;-63
2021/07/14 11:35:44;;;;;;;0.00;0.00;;;;;;;;;;5039929;28;20201;-64
2021/07/14 11:38:15;;;;;;;0.00;0.00;;;;;;;;;;5039969;28;20441;-64
2021/07/14 11:40:42;;;;;;;0.00;0.00;;;;;;;;;;5039836;28;20265;-64
2021/07/14 11:43:16;;;;;;;0.00;0.00;;;;;;;;;;5028332;28;20547;-64
2021/07/14 11:45:43;;;;;;;0.00;0.00;;;;;;;;;;5033999;28;20217;-64
2021/07/14 11:48:10;;;;;;;0.00;0.00;;;;;;;;;;5030844;28;20205;-63
2021/07/14 11:50:51;;;;;;;0.00;0.00;;;;;;;;;;5022932;28;20276;-63
2021/07/14 11:53:31;;;;;;;0.10;0.10;;;;;;;;;;5019736;28;20204;-63
2021/07/14 11:55:58;;;;;;;0.00;0.00;;;;;;;;;;5019594;28;20289;-64
2021/07/14 11:58:39;;;;;;;0.30;0.30;;;;;;;;;;5027729;28;20505;-63
2021/07/14 12:01:08;;;;;;;0.00;0.00;;;;;;;;;;5033329;28;20272;-64
2021/07/14 12:03:34;;;;;;;0.00;0.00;;;;;;;;;;5030382;28;20217;-63
2021/07/14 12:06:02;;;;;;;0.00;0.00;;;;;;;;;;5030147;28;20220;-64
2021/07/14 12:08:36;;;;;;;0.00;0.00;;;;;;;;;;5023230;28;20209;-63
2021/07/14 12:11:03;;;;;;;0.00;0.00;;;;;;;;;;5025334;28;20428;-64
2021/07/14 12:13:29;;;;;;;0.00;0.00;;;;;;;;;;5027150;27;20197;-64
2021/07/14 12:15:55;;;;;;;0.00;0.00;;;;;;;;;;5038467;28;20204;-63
2021/07/14 12:18:22;;;;;;;0.00;0.00;;;;;;;;;;5023984;28;20243;-64
2021/07/14 12:20:48;;;;;;;0.00;0.00;;;;;;;;;;5029460;28;20211;-64
2021/07/14 12:23:16;;;;;;;0.00;0.00;;;;;;;;;;5026133;28;20205;-63
2021/07/14 12:25:42;;;;;;;0.00;0.00;;;;;;;;;;5030475;28;20229;-63
2021/07/14 12:28:10;;;;;;;0.00;0.00;;;;;;;;;;5033538;28;20533;-64
2021/07/14 12:30:40;;;;;;;4.97;4.78;;;;;;;;;;5019721;28;20202;-64
2021/07/14 12:33:08;;;;;;;0.00;0.00;;;;;;;;;;5034176;28;20379;-64
2021/07/14 12:35:35;;;;;;;0.00;0.00;;;;;;;;;;5033573;28;20201;-62
2021/07/14 12:38:04;;;;;;;0.00;0.00;;;;;;;;;;5031724;28;20209;-64
2021/07/14 12:40:33;;;;;;;0.00;0.00;;;;;;;;;;5028553;28;20625;-62
2021/07/14 12:43:01;;;;;;;0.00;0.00;;;;;;;;;;5041799;28;20480;-62
2021/07/14 12:45:28;;;;;;;0.00;0.00;;;;;;;;;;5035080;28;20232;-63
2021/07/14 12:47:55;;;;;;;0.00;0.00;;;;;;;;;;5032939;28;20212;-63
2021/07/14 12:50:22;;;;;;;0.00;0.00;;;;;;;;;;5037563;28;20208;-63
2021/07/14 12:52:52;;;;;;;0.00;0.00;;;;;;;;;;5037014;28;20272;-63
2021/07/14 12:55:19;;;;;;;0.00;0.00;;;;;;;;;;5030525;28;20206;-64
2021/07/14 12:57:46;;;;;;;0.00;0.00;;;;;;;;;;5036025;28;20213;-63
2021/07/14 13:00:13;;;;;;;0.00;0.00;;;;;;;;;;5036404;28;20208;-63
2021/07/14 13:02:41;;;;;;;0.03;0.03;;;;;;;;;;5034408;28;20209;-62
2021/07/14 13:05:12;;;;;;;0.00;0.00;;;;;;;;;;5035761;28;20229;-63
2021/07/14 13:07:39;;;;;;;0.00;0.00;;;;;;;;;;5033097;28;20253;-63
2021/07/14 13:10:07;;;;;;;0.00;0.00;;;;;;;;;;5032424;28;20250;-63
2021/07/14 13:12:33;;;;;;;0.00;0.00;;;;;;;;;;5034109;28;20243;-63
2021/07/14 13:15:01;;;;;;;0.00;0.00;;;;;;;;;;5035613;28;20201;-63
2021/07/14 13:17:29;;;;;;;0.00;0.00;;;;;;;;;;5030898;28;20208;-62
2021/07/14 13:20:04;;;;;;;0.00;0.00;;;;;;;;;;5033761;28;20201;-62
2021/07/14 13:22:30;;;;;;;0.00;0.00;;;;;;;;;;5027795;27;20213;-64
2021/07/14 13:25:04;;;;;;;0.00;0.00;;;;;;;;;;5041619;28;20397;-63
2021/07/14 13:27:36;;;;;;;0.00;0.00;;;;;;;;;;5041528;28;20213;-62
2021/07/14 13:32:57;;;;;;;0.00;0.00;;;;;;;;;;5161334;27;20579;-62
2021/07/14 13:35:24;;;;;;;0.00;0.00;;;;;;;;;;5156200;27;20209;-65
2021/07/14 13:37:50;;;;;;;0.00;0.00;;;;;;;;;;5144298;27;20213;-63
2021/07/14 13:40:23;;;;;;;0.00;0.00;;;;;;;;;;5151463;27;20205;-64
2021/07/14 13:42:51;;;;;;;0.00;0.00;;;;;;;;;;5161605;27;20495;-63
2021/07/14 13:45:26;;;;;;;0.00;0.00;;;;;;;;;;5158346;27;20224;-62
2021/07/14 13:47:56;;;;;;;0.00;0.00;;;;;;;;;;5158229;27;20204;-63
2021/07/14 13:50:22;;;;;;;0.00;0.00;;;;;;;;;;5161239;27;20212;-63
2021/07/14 13:52:55;;;;;;;0.00;0.00;;;;;;;;;;5161770;27;20416;-63
2021/07/14 13:55:22;;;;;;;0.00;0.00;;;;;;;;;;5161317;27;20415;-63
2021/07/14 13:57:48;;;;;;;0.00;0.00;;;;;;;;;;5157831;27;20231;-62
2021/07/14 14:00:14;;;;;;;0.00;0.00;;;;;;;;;;5161099;27;20375;-63
2021/07/14 14:02:41;;;;;;;0.00;0.00;;;;;;;;;;5153406;27;20228;-63
2021/07/14 14:05:10;;;;;;;0.00;0.00;;;;;;;;;;5143641;27;20380;-63
2021/07/14 14:07:37;;;;;;;0.00;0.00;;;;;;;;;;5144143;27;20201;-63
2021/07/14 14:10:05;;;;;;;0.00;0.00;;;;;;;;;;5159473;27;20483;-63
2021/07/14 14:12:33;;;;;;;0.00;0.00;;;;;;;;;;5161105;27;20433;-64
2021/07/14 14:15:00;;;;;;;0.00;0.00;;;;;;;;;;5156560;27;20206;-65
2021/07/14 14:17:27;;;;;;;0.00;0.00;;;;;;;;;;5155494;27;20200;-66
2021/07/14 14:19:54;;;;;;;0.00;0.00;;;;;;;;;;5152509;27;20504;-65
2021/07/14 14:22:23;;;;;;;0.00;0.00;;;;;;;;;;5153162;27;20217;-66
2021/07/14 14:24:49;;;;;;;0.00;0.00;;;;;;;;;;5149375;27;20370;-67
2021/07/14 14:27:15;;;;;;;0.00;0.00;;;;;;;;;;5160378;27;20534;-65
2021/07/14 14:29:42;;;;;;;0.00;0.00;;;;;;;;;;5160560;27;20212;-66
2021/07/14 14:32:10;;;;;;;0.00;0.00;;;;;;;;;;5154281;27;20252;-66
2021/07/14 14:34:36;;;;;;;0.00;0.00;;;;;;;;;;5162723;27;20285;-65
2021/07/14 14:37:03;;;;;;;0.00;0.00;;;;;;;;;;5151483;27;20459;-65
2021/07/14 14:39:30;;;;;;;0.00;0.00;;;;;;;;;;5149525;27;20246;-66
2021/07/14 14:41:57;;;;;;;0.00;0.00;;;;;;;;;;5156745;27;20234;-65
2021/07/14 14:44:23;;;;;;;0.00;0.00;;;;;;;;;;5133624;27;20453;-66
2021/07/14 14:46:50;;;;;;;0.00;0.00;;;;;;;;;;5132084;27;20244;-67
2021/07/14 14:49:16;;;;;;;0.00;0.00;;;;;;;;;;5132972;27;20224;-67
2021/07/14 14:51:43;;;;;;;0.00;0.00;;;;;;;;;;5146763;27;20207;-66
2021/07/14 14:54:09;;;;;;;0.00;0.00;;;;;;;;;;5139046;27;20201;-67